KBKL/BKL METAR and TAF weather

Enter ICAO airport designator
Station Type Date Time Source
KBKL METAR 2021/03/01 02:53 UTC NOAA

KBKL 010253Z 22015G22KT 10SM SCT050 16/11 A2967 RMK AO2 SLP048 T01560111 58005


Station Type Date Time Source
KBKL Decoded METAR 2021/03/01 02:53 UTC NOAA

CLEVELAND BURKE LAKEFRONT, OH, United States (KBKL) 41-32N 81-40W 184M
Feb 28, 2021 - 09:53 PM EST / 2021.03.01 0253 UTC
Wind: from the SW (220 degrees) at 17 MPH (15 KT) gusting to 25 MPH (22 KT):0
Visibility: 10 mile(s):0
Sky conditions: partly cloudy
Temperature: 60.1 F (15.6 C)
Dew Point: 52.0 F (11.1 C)
Relative Humidity: 74%
Pressure (altimeter): 29.67 in. Hg (1004 hPa)
Pressure tendency: 0.01 inches (0.5 hPa) lower than three hours ago
ob: KBKL 010253Z 22015G22KT 10SM SCT050 16/11 A2967 RMK AO2 SLP048 T01560111 58005
cycle: 3

Station Type Date Time Source
KBKL TAF UTC NOAA

Error!

Example: see airport list